sensor_id;sensor_type;location;lat;lon;timestamp;P1;durP1;ratioP1;P2;durP2;ratioP2
16800;SDS011;8518;53.236;10.384;2022-09-23T00:00:33;3.00;;;1.70;;
16800;SDS011;8518;53.236;10.384;2022-09-23T00:02:58;2.83;;;1.50;;
16800;SDS011;8518;53.236;10.384;2022-09-23T00:05:25;2.03;;;1.30;;
16800;SDS011;8518;53.236;10.384;2022-09-23T00:07:51;1.93;;;1.10;;
16800;SDS011;8518;53.236;10.384;2022-09-23T00:10:17;2.13;;;1.67;;
16800;SDS011;8518;53.236;10.384;2022-09-23T00:12:42;3.47;;;1.63;;
16800;SDS011;8518;53.236;10.384;2022-09-23T00:15:08;2.73;;;1.53;;
16800;SDS011;8518;53.236;10.384;2022-09-23T00:17:35;2.50;;;1.33;;
16800;SDS011;8518;53.236;10.384;2022-09-23T00:20:01;1.30;;;1.10;;
16800;SDS011;8518;53.236;10.384;2022-09-23T00:22:26;2.73;;;1.47;;
16800;SDS011;8518;53.236;10.384;2022-09-23T00:24:52;1.43;;;1.30;;
16800;SDS011;8518;53.236;10.384;2022-09-23T00:27:18;3.20;;;1.40;;
16800;SDS011;8518;53.236;10.384;2022-09-23T00:29:45;2.90;;;1.40;;
16800;SDS011;8518;53.236;10.384;2022-09-23T00:32:11;2.43;;;1.10;;
16800;SDS011;8518;53.236;10.384;2022-09-23T00:34:38;2.97;;;1.47;;
16800;SDS011;8518;53.236;10.384;2022-09-23T00:37:03;2.20;;;1.43;;
16800;SDS011;8518;53.236;10.384;2022-09-23T00:39:29;4.07;;;1.20;;
16800;SDS011;8518;53.236;10.384;2022-09-23T00:41:55;1.90;;;1.53;;
16800;SDS011;8518;53.236;10.384;2022-09-23T00:44:40;2.70;;;1.50;;
16800;SDS011;8518;53.236;10.384;2022-09-23T00:47:40;2.13;;;1.87;;
16800;SDS011;8518;53.236;10.384;2022-09-23T00:50:12;1.93;;;1.20;;
16800;SDS011;8518;53.236;10.384;2022-09-23T00:52:44;1.60;;;1.40;;
16800;SDS011;8518;53.236;10.384;2022-09-23T00:55:12;1.83;;;1.40;;
16800;SDS011;8518;53.236;10.384;2022-09-23T00:57:41;1.80;;;1.43;;
16800;SDS011;8518;53.236;10.384;2022-09-23T01:00:09;2.97;;;1.50;;
16800;SDS011;8518;53.236;10.384;2022-09-23T01:02:36;3.67;;;1.67;;
16800;SDS011;8518;53.236;10.384;2022-09-23T01:05:03;3.83;;;1.40;;
16800;SDS011;8518;53.236;10.384;2022-09-23T01:07:30;1.40;;;1.30;;
16800;SDS011;8518;53.236;10.384;2022-09-23T01:09:56;1.33;;;1.20;;
16800;SDS011;8518;53.236;10.384;2022-09-23T01:15:24;1.87;;;1.47;;
16800;SDS011;8518;53.236;10.384;2022-09-23T01:18:03;4.10;;;1.20;;
16800;SDS011;8518;53.236;10.384;2022-09-23T01:23:45;2.20;;;1.30;;
16800;SDS011;8518;53.236;10.384;2022-09-23T01:35:48;1.77;;;1.37;;
16800;SDS011;8518;53.236;10.384;2022-09-23T01:38:16;4.73;;;1.87;;
16800;SDS011;8518;53.236;10.384;2022-09-23T01:40:58;3.37;;;1.33;;
16800;SDS011;8518;53.236;10.384;2022-09-23T01:45:58;3.00;;;1.30;;
16800;SDS011;8518;53.236;10.384;2022-09-23T01:51:12;3.17;;;1.57;;
16800;SDS011;8518;53.236;10.384;2022-09-23T01:56:35;1.97;;;1.30;;
16800;SDS011;8518;53.236;10.384;2022-09-23T01:59:17;1.43;;;1.33;;
16800;SDS011;8518;53.236;10.384;2022-09-23T02:02:02;4.10;;;1.60;;
16800;SDS011;8518;53.236;10.384;2022-09-23T02:04:42;3.07;;;1.53;;
16800;SDS011;8518;53.236;10.384;2022-09-23T02:07:23;4.47;;;1.63;;
16800;SDS011;8518;53.236;10.384;2022-09-23T02:10:06;3.20;;;1.50;;
16800;SDS011;8518;53.236;10.384;2022-09-23T02:12:35;2.63;;;1.50;;
16800;SDS011;8518;53.236;10.384;2022-09-23T02:15:06;2.83;;;1.67;;
16800;SDS011;8518;53.236;10.384;2022-09-23T02:17:36;2.37;;;1.40;;
16800;SDS011;8518;53.236;10.384;2022-09-23T02:20:07;2.20;;;1.40;;
16800;SDS011;8518;53.236;10.384;2022-09-23T02:23:12;3.27;;;1.70;;
16800;SDS011;8518;53.236;10.384;2022-09-23T02:31:11;3.57;;;1.50;;
16800;SDS011;8518;53.236;10.384;2022-09-23T02:33:52;2.57;;;1.57;;
16800;SDS011;8518;53.236;10.384;2022-09-23T02:36:32;3.80;;;1.40;;
16800;SDS011;8518;53.236;10.384;2022-09-23T02:39:07;4.90;;;1.67;;
16800;SDS011;8518;53.236;10.384;2022-09-23T02:41:41;3.00;;;1.57;;
16800;SDS011;8518;53.236;10.384;2022-09-23T02:44:15;3.17;;;1.60;;
16800;SDS011;8518;53.236;10.384;2022-09-23T02:46:43;4.23;;;1.60;;
16800;SDS011;8518;53.236;10.384;2022-09-23T02:49:17;2.50;;;1.47;;
16800;SDS011;8518;53.236;10.384;2022-09-23T02:51:49;3.83;;;1.60;;
16800;SDS011;8518;53.236;10.384;2022-09-23T02:54:16;3.77;;;1.23;;
16800;SDS011;8518;53.236;10.384;2022-09-23T02:56:44;1.83;;;1.33;;
16800;SDS011;8518;53.236;10.384;2022-09-23T02:59:12;2.30;;;1.43;;
16800;SDS011;8518;53.236;10.384;2022-09-23T03:05:15;3.20;;;1.80;;
16800;SDS011;8518;53.236;10.384;2022-09-23T03:07:32;3.40;;;1.60;;
16800;SDS011;8518;53.236;10.384;2022-09-23T03:13:11;3.40;;;1.50;;
16800;SDS011;8518;53.236;10.384;2022-09-23T03:18:40;5.73;;;1.73;;
16800;SDS011;8518;53.236;10.384;2022-09-23T03:24:20;2.57;;;1.57;;
16800;SDS011;8518;53.236;10.384;2022-09-23T03:26:48;3.13;;;1.93;;
16800;SDS011;8518;53.236;10.384;2022-09-23T03:29:15;2.90;;;1.50;;
16800;SDS011;8518;53.236;10.384;2022-09-23T03:31:43;2.13;;;1.40;;
16800;SDS011;8518;53.236;10.384;2022-09-23T03:34:19;4.33;;;1.50;;
16800;SDS011;8518;53.236;10.384;2022-09-23T03:36:55;3.07;;;2.00;;
16800;SDS011;8518;53.236;10.384;2022-09-23T03:39:30;4.43;;;1.80;;
16800;SDS011;8518;53.236;10.384;2022-09-23T03:42:02;1.80;;;1.50;;
16800;SDS011;8518;53.236;10.384;2022-09-23T03:44:51;2.97;;;1.60;;
16800;SDS011;8518;53.236;10.384;2022-09-23T03:47:18;2.90;;;1.80;;
16800;SDS011;8518;53.236;10.384;2022-09-23T03:49:45;3.10;;;1.40;;
16800;SDS011;8518;53.236;10.384;2022-09-23T03:52:13;2.67;;;1.70;;
16800;SDS011;8518;53.236;10.384;2022-09-23T03:54:40;2.27;;;1.80;;
16800;SDS011;8518;53.236;10.384;2022-09-23T03:57:05;1.90;;;1.50;;
16800;SDS011;8518;53.236;10.384;2022-09-23T03:59:31;4.10;;;1.63;;
16800;SDS011;8518;53.236;10.384;2022-09-23T04:01:57;3.03;;;1.47;;
16800;SDS011;8518;53.236;10.384;2022-09-23T04:04:24;2.40;;;1.87;;
16800;SDS011;8518;53.236;10.384;2022-09-23T04:06:51;3.90;;;1.70;;
16800;SDS011;8518;53.236;10.384;2022-09-23T04:09:18;3.43;;;1.60;;
16800;SDS011;8518;53.236;10.384;2022-09-23T04:11:44;2.17;;;1.80;;
16800;SDS011;8518;53.236;10.384;2022-09-23T04:14:11;2.03;;;1.60;;
16800;SDS011;8518;53.236;10.384;2022-09-23T04:16:39;2.83;;;1.80;;
16800;SDS011;8518;53.236;10.384;2022-09-23T04:19:04;2.60;;;1.70;;
16800;SDS011;8518;53.236;10.384;2022-09-23T04:21:30;1.90;;;1.80;;
16800;SDS011;8518;53.236;10.384;2022-09-23T04:23:56;3.20;;;1.90;;
16800;SDS011;8518;53.236;10.384;2022-09-23T04:26:21;1.87;;;1.70;;
16800;SDS011;8518;53.236;10.384;2022-09-23T04:28:47;3.90;;;1.83;;
16800;SDS011;8518;53.236;10.384;2022-09-23T04:31:13;3.40;;;1.93;;
16800;SDS011;8518;53.236;10.384;2022-09-23T04:33:38;2.77;;;1.70;;
16800;SDS011;8518;53.236;10.384;2022-09-23T04:36:04;2.87;;;1.63;;
16800;SDS011;8518;53.236;10.384;2022-09-23T04:38:30;2.10;;;1.50;;
16800;SDS011;8518;53.236;10.384;2022-09-23T04:40:55;2.17;;;1.60;;
16800;SDS011;8518;53.236;10.384;2022-09-23T04:43:21;2.57;;;2.00;;
16800;SDS011;8518;53.236;10.384;2022-09-23T04:45:55;3.87;;;1.97;;
16800;SDS011;8518;53.236;10.384;2022-09-23T04:48:25;4.90;;;2.10;;
16800;SDS011;8518;53.236;10.384;2022-09-23T04:50:51;2.43;;;1.73;;
16800;SDS011;8518;53.236;10.384;2022-09-23T04:53:16;2.60;;;1.93;;
16800;SDS011;8518;53.236;10.384;2022-09-23T04:55:43;6.63;;;1.87;;
16800;SDS011;8518;53.236;10.384;2022-09-23T04:58:09;4.53;;;1.87;;
16800;SDS011;8518;53.236;10.384;2022-09-23T05:00:35;3.93;;;1.93;;
16800;SDS011;8518;53.236;10.384;2022-09-23T05:03:01;2.50;;;2.00;;
16800;SDS011;8518;53.236;10.384;2022-09-23T05:05:28;3.83;;;2.00;;
16800;SDS011;8518;53.236;10.384;2022-09-23T05:07:54;2.77;;;2.10;;
16800;SDS011;8518;53.236;10.384;2022-09-23T05:10:20;2.87;;;2.33;;
16800;SDS011;8518;53.236;10.384;2022-09-23T05:12:47;2.57;;;2.10;;
16800;SDS011;8518;53.236;10.384;2022-09-23T05:15:13;3.50;;;1.87;;
16800;SDS011;8518;53.236;10.384;2022-09-23T05:17:40;2.87;;;1.80;;
16800;SDS011;8518;53.236;10.384;2022-09-23T05:20:07;4.60;;;2.27;;
16800;SDS011;8518;53.236;10.384;2022-09-23T05:22:33;4.53;;;2.10;;
16800;SDS011;8518;53.236;10.384;2022-09-23T05:24:59;2.57;;;2.03;;
16800;SDS011;8518;53.236;10.384;2022-09-23T05:27:26;3.67;;;2.30;;
16800;SDS011;8518;53.236;10.384;2022-09-23T05:29:52;2.87;;;2.00;;
16800;SDS011;8518;53.236;10.384;2022-09-23T05:32:18;2.77;;;2.13;;
16800;SDS011;8518;53.236;10.384;2022-09-23T05:34:44;2.93;;;2.10;;
16800;SDS011;8518;53.236;10.384;2022-09-23T05:37:09;3.37;;;2.20;;
16800;SDS011;8518;53.236;10.384;2022-09-23T05:39:35;4.30;;;2.43;;
16800;SDS011;8518;53.236;10.384;2022-09-23T05:42:01;6.00;;;2.20;;
16800;SDS011;8518;53.236;10.384;2022-09-23T05:44:26;3.57;;;2.27;;
16800;SDS011;8518;53.236;10.384;2022-09-23T05:46:52;3.97;;;2.47;;
16800;SDS011;8518;53.236;10.384;2022-09-23T05:49:17;4.77;;;2.17;;
16800;SDS011;8518;53.236;10.384;2022-09-23T05:51:43;3.40;;;2.00;;
16800;SDS011;8518;53.236;10.384;2022-09-23T05:54:09;3.87;;;2.13;;
16800;SDS011;8518;53.236;10.384;2022-09-23T05:56:34;2.77;;;2.07;;
16800;SDS011;8518;53.236;10.384;2022-09-23T05:59:01;1.70;;;1.60;;
16800;SDS011;8518;53.236;10.384;2022-09-23T06:01:29;2.53;;;1.90;;
16800;SDS011;8518;53.236;10.384;2022-09-23T06:03:57;3.43;;;1.97;;
16800;SDS011;8518;53.236;10.384;2022-09-23T06:06:28;3.13;;;1.70;;
16800;SDS011;8518;53.236;10.384;2022-09-23T06:08:58;2.23;;;1.87;;
16800;SDS011;8518;53.236;10.384;2022-09-23T06:11:25;3.63;;;1.87;;
16800;SDS011;8518;53.236;10.384;2022-09-23T06:13:55;4.13;;;1.87;;
16800;SDS011;8518;53.236;10.384;2022-09-23T06:16:29;2.93;;;2.13;;
16800;SDS011;8518;53.236;10.384;2022-09-23T06:19:02;2.23;;;1.90;;
16800;SDS011;8518;53.236;10.384;2022-09-23T06:21:31;3.40;;;1.90;;
16800;SDS011;8518;53.236;10.384;2022-09-23T06:24:01;2.90;;;1.83;;
16800;SDS011;8518;53.236;10.384;2022-09-23T06:26:28;2.37;;;1.80;;
16800;SDS011;8518;53.236;10.384;2022-09-23T06:28:57;5.00;;;2.30;;
16800;SDS011;8518;53.236;10.384;2022-09-23T06:31:23;2.07;;;1.77;;
16800;SDS011;8518;53.236;10.384;2022-09-23T06:33:49;2.97;;;1.90;;
16800;SDS011;8518;53.236;10.384;2022-09-23T06:36:14;2.63;;;2.00;;
16800;SDS011;8518;53.236;10.384;2022-09-23T06:38:40;3.23;;;2.07;;
16800;SDS011;8518;53.236;10.384;2022-09-23T06:41:13;3.63;;;2.23;;
16800;SDS011;8518;53.236;10.384;2022-09-23T06:43:39;3.77;;;1.80;;
16800;SDS011;8518;53.236;10.384;2022-09-23T06:46:05;5.03;;;2.10;;
16800;SDS011;8518;53.236;10.384;2022-09-23T06:48:32;3.37;;;1.70;;
16800;SDS011;8518;53.236;10.384;2022-09-23T06:51:04;2.73;;;2.00;;
16800;SDS011;8518;53.236;10.384;2022-09-23T06:53:31;4.53;;;1.80;;
16800;SDS011;8518;53.236;10.384;2022-09-23T06:56:00;4.07;;;1.70;;
16800;SDS011;8518;53.236;10.384;2022-09-23T06:58:28;4.43;;;2.00;;
16800;SDS011;8518;53.236;10.384;2022-09-23T07:01:08;2.60;;;1.77;;
16800;SDS011;8518;53.236;10.384;2022-09-23T07:03:36;2.50;;;1.73;;
16800;SDS011;8518;53.236;10.384;2022-09-23T07:06:02;3.27;;;2.10;;
16800;SDS011;8518;53.236;10.384;2022-09-23T07:08:29;2.77;;;1.90;;
16800;SDS011;8518;53.236;10.384;2022-09-23T07:10:56;3.77;;;1.70;;
16800;SDS011;8518;53.236;10.384;2022-09-23T07:13:23;5.00;;;2.00;;
16800;SDS011;8518;53.236;10.384;2022-09-23T07:15:49;5.23;;;2.00;;
16800;SDS011;8518;53.236;10.384;2022-09-23T07:18:17;2.80;;;1.47;;
16800;SDS011;8518;53.236;10.384;2022-09-23T07:20:43;4.13;;;1.70;;
16800;SDS011;8518;53.236;10.384;2022-09-23T07:23:10;2.30;;;1.47;;
16800;SDS011;8518;53.236;10.384;2022-09-23T07:25:36;2.03;;;1.70;;
16800;SDS011;8518;53.236;10.384;2022-09-23T07:28:02;5.90;;;1.70;;
16800;SDS011;8518;53.236;10.384;2022-09-23T07:30:28;2.30;;;1.57;;
16800;SDS011;8518;53.236;10.384;2022-09-23T07:32:54;4.63;;;1.60;;
16800;SDS011;8518;53.236;10.384;2022-09-23T07:35:20;2.60;;;1.50;;
16800;SDS011;8518;53.236;10.384;2022-09-23T07:37:45;2.23;;;1.50;;
16800;SDS011;8518;53.236;10.384;2022-09-23T07:40:11;5.07;;;2.00;;
16800;SDS011;8518;53.236;10.384;2022-09-23T07:42:37;2.63;;;1.60;;
16800;SDS011;8518;53.236;10.384;2022-09-23T07:45:04;3.13;;;1.40;;
16800;SDS011;8518;53.236;10.384;2022-09-23T07:47:31;3.57;;;1.60;;
16800;SDS011;8518;53.236;10.384;2022-09-23T07:49:57;4.97;;;1.33;;
16800;SDS011;8518;53.236;10.384;2022-09-23T07:52:22;1.67;;;1.20;;
16800;SDS011;8518;53.236;10.384;2022-09-23T07:54:48;2.25;;;1.52;;
16800;SDS011;8518;53.236;10.384;2022-09-23T07:57:14;4.55;;;1.45;;
16800;SDS011;8518;53.236;10.384;2022-09-23T07:59:39;2.53;;;1.27;;
16800;SDS011;8518;53.236;10.384;2022-09-23T08:02:07;2.80;;;1.35;;
16800;SDS011;8518;53.236;10.384;2022-09-23T08:04:34;2.53;;;1.17;;
16800;SDS011;8518;53.236;10.384;2022-09-23T08:07:01;2.33;;;1.30;;
16800;SDS011;8518;53.236;10.384;2022-09-23T08:09:37;4.85;;;1.42;;
16800;SDS011;8518;53.236;10.384;2022-09-23T08:12:08;3.50;;;1.10;;
16800;SDS011;8518;53.236;10.384;2022-09-23T08:14:36;1.95;;;1.13;;
16800;SDS011;8518;53.236;10.384;2022-09-23T08:17:02;4.00;;;1.20;;
16800;SDS011;8518;53.236;10.384;2022-09-23T08:19:29;3.10;;;1.52;;
16800;SDS011;8518;53.236;10.384;2022-09-23T08:21:54;4.45;;;1.45;;
16800;SDS011;8518;53.236;10.384;2022-09-23T08:24:21;2.63;;;1.30;;
16800;SDS011;8518;53.236;10.384;2022-09-23T08:26:48;1.60;;;1.10;;
16800;SDS011;8518;53.236;10.384;2022-09-23T08:29:19;3.63;;;1.20;;
16800;SDS011;8518;53.236;10.384;2022-09-23T08:31:46;2.10;;;1.10;;
16800;SDS011;8518;53.236;10.384;2022-09-23T08:34:14;2.80;;;1.00;;
16800;SDS011;8518;53.236;10.384;2022-09-23T08:36:40;1.00;;;0.80;;
16800;SDS011;8518;53.236;10.384;2022-09-23T08:39:06;4.55;;;1.20;;
16800;SDS011;8518;53.236;10.384;2022-09-23T08:44:12;3.85;;;0.90;;
16800;SDS011;8518;53.236;10.384;2022-09-23T08:46:51;1.50;;;0.88;;
16800;SDS011;8518;53.236;10.384;2022-09-23T08:50:03;3.25;;;0.88;;
16800;SDS011;8518;53.236;10.384;2022-09-23T08:52:47;1.60;;;1.02;;
16800;SDS011;8518;53.236;10.384;2022-09-23T08:55:24;1.70;;;0.80;;
16800;SDS011;8518;53.236;10.384;2022-09-23T09:03:42;1.92;;;1.00;;
16800;SDS011;8518;53.236;10.384;2022-09-23T09:06:16;1.67;;;0.80;;
16800;SDS011;8518;53.236;10.384;2022-09-23T09:08:50;5.50;;;0.90;;
16800;SDS011;8518;53.236;10.384;2022-09-23T09:11:19;2.88;;;0.90;;
16800;SDS011;8518;53.236;10.384;2022-09-23T09:13:58;1.17;;;0.70;;
16800;SDS011;8518;53.236;10.384;2022-09-23T09:16:50;1.88;;;0.90;;
16800;SDS011;8518;53.236;10.384;2022-09-23T09:19:24;5.63;;;1.00;;
16800;SDS011;8518;53.236;10.384;2022-09-23T09:22:00;2.20;;;0.85;;
16800;SDS011;8518;53.236;10.384;2022-09-23T09:24:36;1.48;;;0.82;;
16800;SDS011;8518;53.236;10.384;2022-09-23T09:27:12;2.42;;;1.00;;
16800;SDS011;8518;53.236;10.384;2022-09-23T09:29:39;2.22;;;0.90;;
16800;SDS011;8518;53.236;10.384;2022-09-23T09:34:59;2.63;;;1.00;;
16800;SDS011;8518;53.236;10.384;2022-09-23T09:37:38;3.05;;;1.08;;
16800;SDS011;8518;53.236;10.384;2022-09-23T09:40:10;0.88;;;0.75;;
16800;SDS011;8518;53.236;10.384;2022-09-23T09:42:41;1.25;;;0.70;;
16800;SDS011;8518;53.236;10.384;2022-09-23T09:45:20;1.83;;;0.80;;
16800;SDS011;8518;53.236;10.384;2022-09-23T09:51:23;1.55;;;0.52;;
16800;SDS011;8518;53.236;10.384;2022-09-23T09:53:52;2.28;;;0.88;;
16800;SDS011;8518;53.236;10.384;2022-09-23T09:56:29;1.60;;;0.88;;
16800;SDS011;8518;53.236;10.384;2022-09-23T09:58:59;1.40;;;0.95;;
16800;SDS011;8518;53.236;10.384;2022-09-23T10:01:26;1.85;;;0.80;;
16800;SDS011;8518;53.236;10.384;2022-09-23T10:04:02;2.00;;;0.80;;
16800;SDS011;8518;53.236;10.384;2022-09-23T10:06:31;0.70;;;0.70;;
16800;SDS011;8518;53.236;10.384;2022-09-23T10:11:30;1.20;;;0.75;;
16800;SDS011;8518;53.236;10.384;2022-09-23T10:14:04;2.75;;;0.73;;
16800;SDS011;8518;53.236;10.384;2022-09-23T10:16:36;1.45;;;0.70;;
16800;SDS011;8518;53.236;10.384;2022-09-23T10:19:02;1.08;;;0.70;;
16800;SDS011;8518;53.236;10.384;2022-09-23T10:21:37;1.63;;;0.90;;
16800;SDS011;8518;53.236;10.384;2022-09-23T10:24:04;1.23;;;0.80;;
16800;SDS011;8518;53.236;10.384;2022-09-23T10:26:32;3.10;;;0.90;;
16800;SDS011;8518;53.236;10.384;2022-09-23T10:34:44;2.35;;;0.70;;
16800;SDS011;8518;53.236;10.384;2022-09-23T10:37:14;2.13;;;0.85;;
16800;SDS011;8518;53.236;10.384;2022-09-23T10:39:46;3.13;;;0.70;;
16800;SDS011;8518;53.236;10.384;2022-09-23T10:45:38;2.22;;;0.90;;
16800;SDS011;8518;53.236;10.384;2022-09-23T10:48:35;2.45;;;0.70;;
16800;SDS011;8518;53.236;10.384;2022-09-23T10:51:33;0.90;;;0.80;;
16800;SDS011;8518;53.236;10.384;2022-09-23T10:55:03;1.50;;;0.68;;
16800;SDS011;8518;53.236;10.384;2022-09-23T10:57:31;0.88;;;0.70;;
16800;SDS011;8518;53.236;10.384;2022-09-23T11:08:31;2.72;;;0.73;;
16800;SDS011;8518;53.236;10.384;2022-09-23T11:36:03;0.70;;;0.70;;
16800;SDS011;8518;53.236;10.384;2022-09-23T11:38:38;1.88;;;0.88;;
16800;SDS011;8518;53.236;10.384;2022-09-23T11:41:23;2.15;;;0.75;;
16800;SDS011;8518;53.236;10.384;2022-09-23T11:43:54;1.50;;;0.90;;
16800;SDS011;8518;53.236;10.384;2022-09-23T11:46:41;2.17;;;0.75;;
16800;SDS011;8518;53.236;10.384;2022-09-23T11:49:18;1.88;;;0.95;;
16800;SDS011;8518;53.236;10.384;2022-09-23T11:54:52;2.03;;;0.98;;
16800;SDS011;8518;53.236;10.384;2022-09-23T11:57:33;1.17;;;0.73;;
16800;SDS011;8518;53.236;10.384;2022-09-23T12:00:06;1.02;;;0.88;;
16800;SDS011;8518;53.236;10.384;2022-09-23T12:05:17;1.48;;;0.80;;
16800;SDS011;8518;53.236;10.384;2022-09-23T12:13:21;0.82;;;0.70;;
16800;SDS011;8518;53.236;10.384;2022-09-23T12:27:40;1.98;;;0.80;;
16800;SDS011;8518;53.236;10.384;2022-09-23T12:30:20;1.33;;;0.82;;
16800;SDS011;8518;53.236;10.384;2022-09-23T12:32:49;1.63;;;1.05;;
16800;SDS011;8518;53.236;10.384;2022-09-23T12:35:21;1.17;;;0.90;;
16800;SDS011;8518;53.236;10.384;2022-09-23T12:37:57;1.05;;;0.93;;
16800;SDS011;8518;53.236;10.384;2022-09-23T12:43:04;1.25;;;0.80;;
16800;SDS011;8518;53.236;10.384;2022-09-23T12:47:58;1.35;;;0.85;;
16800;SDS011;8518;53.236;10.384;2022-09-23T13:01:41;2.45;;;1.00;;
16800;SDS011;8518;53.236;10.384;2022-09-23T13:07:24;1.77;;;0.70;;
16800;SDS011;8518;53.236;10.384;2022-09-23T13:09:55;1.23;;;0.80;;
16800;SDS011;8518;53.236;10.384;2022-09-23T13:12:30;0.52;;;0.45;;
16800;SDS011;8518;53.236;10.384;2022-09-23T13:14:59;0.65;;;0.57;;
16800;SDS011;8518;53.236;10.384;2022-09-23T13:20:01;1.15;;;0.60;;
16800;SDS011;8518;53.236;10.384;2022-09-23T13:23:14;0.93;;;0.70;;
16800;SDS011;8518;53.236;10.384;2022-09-23T13:25:23;1.08;;;0.65;;
16800;SDS011;8518;53.236;10.384;2022-09-23T13:27:54;1.83;;;1.08;;
16800;SDS011;8518;53.236;10.384;2022-09-23T13:30:23;3.05;;;1.23;;
16800;SDS011;8518;53.236;10.384;2022-09-23T13:35:40;1.42;;;0.73;;
16800;SDS011;8518;53.236;10.384;2022-09-23T13:38:30;0.85;;;0.65;;
16800;SDS011;8518;53.236;10.384;2022-09-23T13:46:09;1.10;;;0.70;;
16800;SDS011;8518;53.236;10.384;2022-09-23T13:48:38;1.30;;;0.88;;
16800;SDS011;8518;53.236;10.384;2022-09-23T13:51:11;2.55;;;1.08;;
16800;SDS011;8518;53.236;10.384;2022-09-23T13:53:50;1.80;;;0.85;;
16800;SDS011;8518;53.236;10.384;2022-09-23T13:56:17;1.33;;;0.80;;
16800;SDS011;8518;53.236;10.384;2022-09-23T13:58:43;2.65;;;0.93;;
16800;SDS011;8518;53.236;10.384;2022-09-23T14:01:19;1.92;;;0.90;;
16800;SDS011;8518;53.236;10.384;2022-09-23T14:03:46;1.45;;;1.10;;
16800;SDS011;8518;53.236;10.384;2022-09-23T14:06:13;1.75;;;0.77;;
16800;SDS011;8518;53.236;10.384;2022-09-23T14:08:42;1.45;;;0.90;;
16800;SDS011;8518;53.236;10.384;2022-09-23T14:11:16;2.35;;;0.90;;
16800;SDS011;8518;53.236;10.384;2022-09-23T14:13:44;2.03;;;0.77;;
16800;SDS011;8518;53.236;10.384;2022-09-23T14:16:13;2.33;;;1.13;;
16800;SDS011;8518;53.236;10.384;2022-09-23T14:18:40;1.98;;;0.90;;
16800;SDS011;8518;53.236;10.384;2022-09-23T14:21:26;1.35;;;0.80;;
16800;SDS011;8518;53.236;10.384;2022-09-23T14:23:53;1.08;;;0.73;;
16800;SDS011;8518;53.236;10.384;2022-09-23T14:26:20;4.13;;;0.82;;
16800;SDS011;8518;53.236;10.384;2022-09-23T14:28:48;2.53;;;1.15;;
16800;SDS011;8518;53.236;10.384;2022-09-23T14:31:14;1.48;;;1.10;;
16800;SDS011;8518;53.236;10.384;2022-09-23T14:33:40;2.75;;;1.15;;
16800;SDS011;8518;53.236;10.384;2022-09-23T14:36:08;4.53;;;0.90;;
16800;SDS011;8518;53.236;10.384;2022-09-23T14:39:02;1.23;;;0.90;;
16800;SDS011;8518;53.236;10.384;2022-09-23T14:41:32;1.35;;;0.80;;
16800;SDS011;8518;53.236;10.384;2022-09-23T14:44:01;1.83;;;1.17;;
16800;SDS011;8518;53.236;10.384;2022-09-23T14:46:30;1.33;;;0.90;;
16800;SDS011;8518;53.236;10.384;2022-09-23T14:49:04;1.77;;;0.93;;
16800;SDS011;8518;53.236;10.384;2022-09-23T14:56:46;1.55;;;1.05;;
16800;SDS011;8518;53.236;10.384;2022-09-23T14:59:22;3.83;;;0.88;;
16800;SDS011;8518;53.236;10.384;2022-09-23T15:01:55;2.22;;;1.10;;
16800;SDS011;8518;53.236;10.384;2022-09-23T15:06:54;2.25;;;1.27;;
16800;SDS011;8518;53.236;10.384;2022-09-23T15:09:35;2.30;;;0.98;;
16800;SDS011;8518;53.236;10.384;2022-09-23T15:12:05;1.13;;;1.02;;
16800;SDS011;8518;53.236;10.384;2022-09-23T15:14:42;1.23;;;0.93;;
16800;SDS011;8518;53.236;10.384;2022-09-23T15:17:14;2.90;;;1.13;;
16800;SDS011;8518;53.236;10.384;2022-09-23T15:19:54;2.22;;;0.90;;
16800;SDS011;8518;53.236;10.384;2022-09-23T15:22:22;2.38;;;1.00;;
16800;SDS011;8518;53.236;10.384;2022-09-23T15:24:50;1.77;;;1.10;;
16800;SDS011;8518;53.236;10.384;2022-09-23T15:29:51;2.13;;;1.00;;
16800;SDS011;8518;53.236;10.384;2022-09-23T15:32:18;1.33;;;1.23;;
16800;SDS011;8518;53.236;10.384;2022-09-23T15:34:46;1.83;;;1.23;;
16800;SDS011;8518;53.236;10.384;2022-09-23T15:37:13;2.13;;;1.08;;
16800;SDS011;8518;53.236;10.384;2022-09-23T15:39:39;1.65;;;1.13;;
16800;SDS011;8518;53.236;10.384;2022-09-23T15:42:05;2.15;;;1.20;;
16800;SDS011;8518;53.236;10.384;2022-09-23T15:44:34;2.38;;;0.90;;
16800;SDS011;8518;53.236;10.384;2022-09-23T15:47:02;3.30;;;1.42;;
16800;SDS011;8518;53.236;10.384;2022-09-23T15:49:31;1.98;;;1.10;;
16800;SDS011;8518;53.236;10.384;2022-09-23T15:52:00;3.42;;;1.30;;
16800;SDS011;8518;53.236;10.384;2022-09-23T15:54:29;3.10;;;1.02;;
16800;SDS011;8518;53.236;10.384;2022-09-23T15:56:56;3.67;;;1.20;;
16800;SDS011;8518;53.236;10.384;2022-09-23T15:59:22;1.52;;;0.95;;
16800;SDS011;8518;53.236;10.384;2022-09-23T16:01:51;1.67;;;1.05;;
16800;SDS011;8518;53.236;10.384;2022-09-23T16:04:19;1.17;;;1.08;;
16800;SDS011;8518;53.236;10.384;2022-09-23T16:06:44;1.73;;;1.30;;
16800;SDS011;8518;53.236;10.384;2022-09-23T16:09:12;2.97;;;1.38;;
16800;SDS011;8518;53.236;10.384;2022-09-23T16:11:39;3.88;;;1.35;;
16800;SDS011;8518;53.236;10.384;2022-09-23T16:14:13;2.80;;;1.27;;
16800;SDS011;8518;53.236;10.384;2022-09-23T16:16:41;1.55;;;1.15;;
16800;SDS011;8518;53.236;10.384;2022-09-23T16:19:08;2.38;;;1.23;;
16800;SDS011;8518;53.236;10.384;2022-09-23T16:21:38;1.98;;;1.40;;
16800;SDS011;8518;53.236;10.384;2022-09-23T16:24:13;5.25;;;1.42;;
16800;SDS011;8518;53.236;10.384;2022-09-23T16:26:41;2.40;;;1.47;;
16800;SDS011;8518;53.236;10.384;2022-09-23T16:29:08;3.13;;;1.30;;
16800;SDS011;8518;53.236;10.384;2022-09-23T16:31:34;5.72;;;1.40;;
16800;SDS011;8518;53.236;10.384;2022-09-23T16:34:01;2.40;;;1.30;;
16800;SDS011;8518;53.236;10.384;2022-09-23T16:36:27;2.90;;;1.23;;
16800;SDS011;8518;53.236;10.384;2022-09-23T16:38:57;2.55;;;1.50;;
16800;SDS011;8518;53.236;10.384;2022-09-23T16:41:24;3.00;;;1.50;;
16800;SDS011;8518;53.236;10.384;2022-09-23T16:43:53;2.17;;;1.30;;
16800;SDS011;8518;53.236;10.384;2022-09-23T16:46:20;4.07;;;1.98;;
16800;SDS011;8518;53.236;10.384;2022-09-23T16:48:47;2.73;;;1.80;;
16800;SDS011;8518;53.236;10.384;2022-09-23T16:53:45;3.17;;;1.90;;
16800;SDS011;8518;53.236;10.384;2022-09-23T16:56:15;2.40;;;1.70;;
16800;SDS011;8518;53.236;10.384;2022-09-23T16:58:41;2.10;;;1.60;;
16800;SDS011;8518;53.236;10.384;2022-09-23T17:01:10;2.13;;;1.77;;
16800;SDS011;8518;53.236;10.384;2022-09-23T17:03:57;3.23;;;1.60;;
16800;SDS011;8518;53.236;10.384;2022-09-23T17:06:22;4.50;;;2.20;;
16800;SDS011;8518;53.236;10.384;2022-09-23T17:08:51;2.50;;;1.92;;
16800;SDS011;8518;53.236;10.384;2022-09-23T17:11:18;2.92;;;1.70;;
16800;SDS011;8518;53.236;10.384;2022-09-23T17:13:44;2.93;;;2.33;;
16800;SDS011;8518;53.236;10.384;2022-09-23T17:16:10;5.45;;;3.25;;
16800;SDS011;8518;53.236;10.384;2022-09-23T17:18:47;4.07;;;1.83;;
16800;SDS011;8518;53.236;10.384;2022-09-23T17:21:12;3.00;;;1.37;;
16800;SDS011;8518;53.236;10.384;2022-09-23T17:23:38;2.40;;;1.80;;
16800;SDS011;8518;53.236;10.384;2022-09-23T17:26:04;2.00;;;1.50;;
16800;SDS011;8518;53.236;10.384;2022-09-23T17:28:33;3.50;;;1.57;;
16800;SDS011;8518;53.236;10.384;2022-09-23T17:31:00;1.93;;;1.57;;
16800;SDS011;8518;53.236;10.384;2022-09-23T17:33:28;3.07;;;1.93;;
16800;SDS011;8518;53.236;10.384;2022-09-23T17:35:55;5.17;;;1.93;;
16800;SDS011;8518;53.236;10.384;2022-09-23T17:38:21;3.60;;;1.50;;
16800;SDS011;8518;53.236;10.384;2022-09-23T17:40:48;2.57;;;1.73;;
16800;SDS011;8518;53.236;10.384;2022-09-23T17:43:19;2.17;;;1.60;;
16800;SDS011;8518;53.236;10.384;2022-09-23T17:45:49;2.83;;;1.80;;
16800;SDS011;8518;53.236;10.384;2022-09-23T17:48:19;3.23;;;2.10;;
16800;SDS011;8518;53.236;10.384;2022-09-23T17:50:59;2.93;;;2.17;;
16800;SDS011;8518;53.236;10.384;2022-09-23T17:53:34;2.60;;;1.90;;